AAL315 KLAX-KMIA
Flight info
| Callsign | AAL315 |
|---|---|
| Flight time | 3h 59m |
| Altitude | 35000 |
| Route | DOTSS2 CNERY BLH SALOM EWM CRGER/N0435F370 IAH J86 LEV BACCA Y290 GAWKS FROGZ5 |
| Aircraft | A319/M-SDE3FGHIRWY/LB1 |
Departure
| Time | 2026-05-04 13:34 |
|---|---|
| Airport | Los Angeles International Airport (KLAX) |
Arrival
| Time | 2026-05-04 17:34 |
|---|---|
| Airport | Miami International Airport (KMIA) |
| Time | Latitude | Longitude | Altitude | Speed | Heading |
|---|---|---|---|---|---|
| 2026-05-04 12:58 | 33.93957 | -118.40643 | 47 ft | 0 kts | 344° |
| 2026-05-04 13:25 | 33.93935 | -118.40636 | 93 ft | 4 kts | 354° |
| 2026-05-04 13:26 | 33.93909 | -118.40638 | 93 ft | 4 kts | 26° |
| 2026-05-04 13:26 | 33.93895 | -118.40655 | 93 ft | 1 kts | 83° |
| 2026-05-04 13:26 | 33.93895 | -118.40660 | 95 ft | 0 kts | 83° |
| 2026-05-04 13:28 | 33.93896 | -118.40643 | 94 ft | 4 kts | 85° |
| 2026-05-04 13:28 | 33.93900 | -118.40598 | 93 ft | 7 kts | 83° |
| 2026-05-04 13:29 | 33.93888 | -118.40535 | 95 ft | 9 kts | 141° |
| 2026-05-04 13:29 | 33.93829 | -118.40505 | 96 ft | 10 kts | 115° |
| 2026-05-04 13:29 | 33.93837 | -118.40410 | 95 ft | 13 kts | 82° |
| 2026-05-04 13:29 | 33.93848 | -118.40292 | 96 ft | 16 kts | 83° |
| 2026-05-04 13:30 | 33.93863 | -118.40150 | 96 ft | 18 kts | 83° |
| 2026-05-04 13:30 | 33.93880 | -118.39986 | 96 ft | 21 kts | 83° |
| 2026-05-04 13:30 | 33.93899 | -118.39797 | 95 ft | 24 kts | 83° |
| 2026-05-04 13:30 | 33.93921 | -118.39585 | 95 ft | 26 kts | 82° |
| 2026-05-04 13:31 | 33.93943 | -118.39370 | 94 ft | 26 kts | 83° |
| 2026-05-04 13:31 | 33.93964 | -118.39156 | 94 ft | 25 kts | 83° |
| 2026-05-04 13:31 | 33.93985 | -118.38949 | 94 ft | 25 kts | 83° |
| 2026-05-04 13:31 | 33.94007 | -118.38748 | 94 ft | 24 kts | 84° |
| 2026-05-04 13:32 | 33.94026 | -118.38554 | 95 ft | 23 kts | 82° |
| 2026-05-04 13:32 | 33.94044 | -118.38385 | 95 ft | 14 kts | 82° |
| 2026-05-04 13:32 | 33.94020 | -118.38326 | 97 ft | 7 kts | 158° |
| 2026-05-04 13:32 | 33.93985 | -118.38322 | 100 ft | 4 kts | 179° |
| 2026-05-04 13:33 | 33.93957 | -118.38328 | 98 ft | 4 kts | 211° |
| 2026-05-04 13:33 | 33.93950 | -118.38353 | 99 ft | 3 kts | 263° |
| 2026-05-04 13:33 | 33.93939 | -118.38462 | 101 ft | 39 kts | 263° |
| 2026-05-04 13:33 | 33.93878 | -118.39073 | 95 ft | 105 kts | 263° |
| 2026-05-04 13:34 | 33.93766 | -118.40155 | 101 ft | 154 kts | 263° |
| 2026-05-04 13:34 | 33.93633 | -118.41482 | 567 ft | 157 kts | 263° |
| 2026-05-04 13:34 | 33.93493 | -118.42780 | 1211 ft | 156 kts | 262° |
| 2026-05-04 13:34 | 33.93347 | -118.44084 | 1777 ft | 159 kts | 264° |
| 2026-05-04 13:35 | 33.93186 | -118.45471 | 2108 ft | 179 kts | 257° |
| 2026-05-04 13:35 | 33.91609 | -118.48262 | 2650 ft | 226 kts | 233° |
| 2026-05-04 13:35 | 33.90577 | -118.49824 | 3060 ft | 249 kts | 232° |
| 2026-05-04 13:36 | 33.89465 | -118.51430 | 3797 ft | 256 kts | 231° |
| 2026-05-04 13:36 | 33.88304 | -118.53073 | 4676 ft | 259 kts | 231° |
| 2026-05-04 13:36 | 33.87116 | -118.54722 | 5550 ft | 263 kts | 228° |
| 2026-05-04 13:36 | 33.85549 | -118.55884 | 6370 ft | 273 kts | 197° |
| 2026-05-04 13:37 | 33.83635 | -118.55891 | 7139 ft | 281 kts | 170° |
| 2026-05-04 13:37 | 33.81721 | -118.55380 | 7993 ft | 282 kts | 169° |
| 2026-05-04 13:37 | 33.79805 | -118.54850 | 8831 ft | 283 kts | 169° |
| 2026-05-04 13:37 | 33.78503 | -118.54490 | 9403 ft | 284 kts | 169° |
| 2026-05-04 13:38 | 33.75932 | -118.53781 | 10341 ft | 293 kts | 170° |
| 2026-05-04 13:38 | 33.73870 | -118.53210 | 10532 ft | 316 kts | 168° |
| 2026-05-04 13:38 | 33.72446 | -118.52570 | 10767 ft | 330 kts | 157° |
| 2026-05-04 13:38 | 33.70508 | -118.51006 | 11370 ft | 342 kts | 142° |
| 2026-05-04 13:39 | 33.68947 | -118.48795 | 12023 ft | 354 kts | 126° |
| 2026-05-04 13:39 | 33.67925 | -118.46106 | 12651 ft | 365 kts | 114° |
| 2026-05-04 13:39 | 33.67066 | -118.43207 | 13271 ft | 371 kts | 114° |
| 2026-05-04 13:39 | 33.66201 | -118.40269 | 13869 ft | 376 kts | 114° |
| 2026-05-04 13:40 | 33.65325 | -118.37288 | 14407 ft | 381 kts | 114° |
| 2026-05-04 13:40 | 33.64641 | -118.34175 | 14900 ft | 392 kts | 103° |
| 2026-05-04 13:40 | 33.64455 | -118.30868 | 15427 ft | 402 kts | 93° |
| 2026-05-04 13:40 | 33.64471 | -118.27491 | 15943 ft | 407 kts | 94° |
| 2026-05-04 13:41 | 33.64476 | -118.24076 | 16458 ft | 412 kts | 94° |
| 2026-05-04 13:41 | 33.64473 | -118.20618 | 16968 ft | 417 kts | 94° |
| 2026-05-04 13:41 | 33.64467 | -118.17122 | 17470 ft | 422 kts | 94° |
| 2026-05-04 13:42 | 33.64459 | -118.10007 | 18468 ft | 431 kts | 95° |
| 2026-05-04 13:42 | 33.64458 | -118.06341 | 18919 ft | 435 kts | 95° |
| 2026-05-04 13:42 | 33.64455 | -118.02747 | 19376 ft | 439 kts | 95° |
| 2026-05-04 13:42 | 33.64450 | -117.99072 | 19840 ft | 442 kts | 95° |
| 2026-05-04 13:43 | 33.64445 | -117.95363 | 20301 ft | 446 kts | 96° |
| 2026-05-04 13:43 | 33.64440 | -117.91627 | 20744 ft | 450 kts | 96° |
| 2026-05-04 13:43 | 33.64430 | -117.87857 | 21197 ft | 453 kts | 97° |
| 2026-05-04 13:43 | 33.64415 | -117.84058 | 21639 ft | 457 kts | 97° |
| 2026-05-04 13:44 | 33.64277 | -117.80254 | 22071 ft | 454 kts | 104° |
| 2026-05-04 13:44 | 33.63685 | -117.76562 | 22518 ft | 447 kts | 115° |
| 2026-05-04 13:44 | 33.62810 | -117.72984 | 22954 ft | 449 kts | 116° |
| 2026-05-04 13:44 | 33.61918 | -117.69385 | 23402 ft | 452 kts | 116° |
| 2026-05-04 13:45 | 33.61020 | -117.65763 | 23804 ft | 455 kts | 117° |
| 2026-05-04 13:45 | 33.60116 | -117.62116 | 24163 ft | 458 kts | 117° |
| 2026-05-04 13:45 | 33.59208 | -117.58447 | 24512 ft | 460 kts | 117° |
| 2026-05-04 13:45 | 33.58296 | -117.54755 | 24865 ft | 463 kts | 117° |
| 2026-05-04 13:46 | 33.57377 | -117.51045 | 25216 ft | 466 kts | 117° |
| 2026-05-04 13:46 | 33.56451 | -117.47313 | 25535 ft | 468 kts | 117° |
| 2026-05-04 13:46 | 33.55519 | -117.43565 | 25851 ft | 471 kts | 117° |
| 2026-05-04 13:46 | 33.54585 | -117.39790 | 26179 ft | 474 kts | 116° |
| 2026-05-04 13:47 | 33.53643 | -117.35993 | 26447 ft | 477 kts | 116° |
| 2026-05-04 13:47 | 33.52690 | -117.32172 | 26728 ft | 480 kts | 116° |
| 2026-05-04 13:47 | 33.51729 | -117.28331 | 27036 ft | 482 kts | 116° |
| 2026-05-04 13:47 | 33.50845 | -117.24425 | 27343 ft | 492 kts | 110° |
| 2026-05-04 13:48 | 33.50427 | -117.20297 | 27630 ft | 507 kts | 99° |
| 2026-05-04 13:48 | 33.50375 | -117.16054 | 27882 ft | 511 kts | 97° |
| 2026-05-04 13:48 | 33.50331 | -117.11783 | 28196 ft | 514 kts | 97° |
| 2026-05-04 13:48 | 33.50282 | -117.07495 | 28496 ft | 516 kts | 98° |
| 2026-05-04 13:49 | 33.50227 | -117.03188 | 28798 ft | 518 kts | 98° |
| 2026-05-04 13:49 | 33.50167 | -116.98860 | 29084 ft | 521 kts | 98° |
| 2026-05-04 13:49 | 33.50102 | -116.94574 | 29378 ft | 523 kts | 98° |
| 2026-05-04 13:49 | 33.50033 | -116.90209 | 29666 ft | 525 kts | 98° |
| 2026-05-04 13:50 | 33.49964 | -116.85824 | 29888 ft | 527 kts | 97° |
| 2026-05-04 13:50 | 33.49895 | -116.81437 | 30239 ft | 527 kts | 97° |
| 2026-05-04 13:50 | 33.49824 | -116.77043 | 30477 ft | 529 kts | 97° |
| 2026-05-04 13:50 | 33.49750 | -116.72631 | 30665 ft | 531 kts | 98° |
| 2026-05-04 13:51 | 33.49673 | -116.68195 | 30862 ft | 533 kts | 98° |
| 2026-05-04 13:51 | 33.49595 | -116.63747 | 31057 ft | 536 kts | 98° |
| 2026-05-04 13:51 | 33.49519 | -116.59281 | 31308 ft | 536 kts | 98° |
| 2026-05-04 13:51 | 33.49446 | -116.54815 | 31569 ft | 537 kts | 97° |
| 2026-05-04 13:52 | 33.49289 | -116.45868 | 32129 ft | 538 kts | 98° |
| 2026-05-04 13:52 | 33.49201 | -116.41386 | 32379 ft | 539 kts | 98° |
| 2026-05-04 13:52 | 33.49120 | -116.36891 | 32639 ft | 541 kts | 97° |
| 2026-05-04 13:53 | 33.49050 | -116.32379 | 32870 ft | 543 kts | 98° |
| 2026-05-04 13:53 | 33.48988 | -116.27852 | 33059 ft | 545 kts | 97° |
| 2026-05-04 13:53 | 33.48927 | -116.23309 | 33306 ft | 545 kts | 97° |
| 2026-05-04 13:54 | 33.48793 | -116.14216 | 33816 ft | 547 kts | 97° |
| 2026-05-04 13:54 | 33.48715 | -116.09660 | 34038 ft | 548 kts | 97° |
| 2026-05-04 13:54 | 33.49565 | -116.00506 | 34480 ft | 560 kts | 78° |
| 2026-05-04 13:55 | 33.50760 | -115.96057 | 34702 ft | 562 kts | 72° |
| 2026-05-04 13:55 | 33.53363 | -115.87259 | 34923 ft | 556 kts | 72° |
| 2026-05-04 13:55 | 33.54637 | -115.82901 | 34924 ft | 553 kts | 72° |
| 2026-05-04 13:56 | 33.57159 | -115.74204 | 34912 ft | 552 kts | 72° |
| 2026-05-04 13:57 | 33.60873 | -115.61141 | 34914 ft | 551 kts | 77° |
| 2026-05-04 13:57 | 33.61566 | -115.56645 | 34915 ft | 546 kts | 89° |
| 2026-05-04 13:58 | 33.61414 | -115.43136 | 34912 ft | 540 kts | 97° |
| 2026-05-04 13:58 | 33.61082 | -115.29693 | 34883 ft | 540 kts | 97° |
| 2026-05-04 13:59 | 33.60858 | -115.20688 | 34878 ft | 540 kts | 97° |
| 2026-05-04 14:00 | 33.60496 | -115.07171 | 34892 ft | 540 kts | 98° |
| 2026-05-04 14:00 | 33.60115 | -114.93654 | 34922 ft | 541 kts | 98° |
| 2026-05-04 14:01 | 33.59862 | -114.84632 | 34946 ft | 541 kts | 98° |
| 2026-05-04 14:02 | 33.59329 | -114.70963 | 34943 ft | 550 kts | 101° |
| 2026-05-04 14:02 | 33.58505 | -114.61856 | 34944 ft | 548 kts | 104° |
| 2026-05-04 14:03 | 33.57535 | -114.52780 | 34930 ft | 549 kts | 104° |
| 2026-05-04 14:03 | 33.56657 | -114.43680 | 34918 ft | 550 kts | 103° |
| 2026-05-04 14:04 | 33.55463 | -114.29983 | 34898 ft | 554 kts | 102° |
| 2026-05-04 14:04 | 33.54621 | -114.20734 | 34901 ft | 561 kts | 103° |
| 2026-05-04 14:05 | 33.53309 | -114.06787 | 34896 ft | 562 kts | 103° |
| 2026-05-04 14:06 | 33.52432 | -113.97466 | 34926 ft | 563 kts | 102° |
| 2026-05-04 14:06 | 33.51490 | -113.88157 | 34989 ft | 559 kts | 108° |
| 2026-05-04 14:07 | 33.49931 | -113.79050 | 35052 ft | 558 kts | 109° |
| 2026-05-04 14:07 | 33.48353 | -113.69951 | 35090 ft | 558 kts | 109° |
| 2026-05-04 14:08 | 33.46766 | -113.60861 | 35110 ft | 558 kts | 109° |
| 2026-05-04 14:08 | 33.45178 | -113.51769 | 35086 ft | 558 kts | 109° |
| 2026-05-04 14:09 | 33.42790 | -113.38135 | 34866 ft | 558 kts | 108° |
| 2026-05-04 14:10 | 33.40382 | -113.24505 | 34870 ft | 558 kts | 109° |
| 2026-05-04 14:10 | 33.38767 | -113.15422 | 34874 ft | 558 kts | 109° |
| 2026-05-04 14:11 | 33.37144 | -113.06341 | 34891 ft | 559 kts | 108° |
| 2026-05-04 14:11 | 33.34701 | -112.92764 | 34921 ft | 559 kts | 108° |
| 2026-05-04 14:12 | 33.33050 | -112.83602 | 34942 ft | 560 kts | 108° |
| 2026-05-04 14:13 | 33.30584 | -112.70001 | 34934 ft | 562 kts | 108° |
| 2026-05-04 14:13 | 33.28915 | -112.60869 | 34930 ft | 563 kts | 108° |
| 2026-05-04 14:14 | 33.27240 | -112.51727 | 34913 ft | 563 kts | 108° |
| 2026-05-04 14:14 | 33.24708 | -112.38004 | 34920 ft | 564 kts | 108° |
| 2026-05-04 14:15 | 33.21317 | -112.19689 | 34897 ft | 565 kts | 108° |
| 2026-05-04 14:16 | 33.18745 | -112.05969 | 34922 ft | 566 kts | 108° |
| 2026-05-04 14:17 | 33.16148 | -111.92224 | 34959 ft | 566 kts | 108° |
| 2026-05-04 14:18 | 33.13549 | -111.78483 | 34934 ft | 566 kts | 108° |
| 2026-05-04 14:19 | 33.10058 | -111.60189 | 34956 ft | 566 kts | 108° |
| 2026-05-04 14:19 | 33.08306 | -111.51113 | 34914 ft | 565 kts | 108° |
| 2026-05-04 14:20 | 33.06542 | -111.41982 | 34909 ft | 565 kts | 108° |
| 2026-05-04 14:20 | 33.04780 | -111.32871 | 34922 ft | 564 kts | 108° |
| 2026-05-04 14:21 | 33.02126 | -111.19223 | 34924 ft | 563 kts | 108° |
| 2026-05-04 14:21 | 33.00344 | -111.10143 | 34902 ft | 563 kts | 108° |
| 2026-05-04 14:22 | 32.98555 | -111.01067 | 34912 ft | 563 kts | 108° |
| 2026-05-04 14:22 | 32.96761 | -110.91997 | 34910 ft | 563 kts | 108° |
| 2026-05-04 14:23 | 32.94073 | -110.78395 | 34884 ft | 563 kts | 108° |
| 2026-05-04 14:24 | 32.92269 | -110.69338 | 34912 ft | 562 kts | 108° |
| 2026-05-04 14:24 | 32.90765 | -110.61814 | 34925 ft | 562 kts | 108° |
| 2026-05-04 14:25 | 32.88950 | -110.52774 | 34927 ft | 561 kts | 108° |
| 2026-05-04 14:25 | 32.86206 | -110.39235 | 34908 ft | 561 kts | 108° |
| 2026-05-04 14:26 | 32.84369 | -110.30213 | 34904 ft | 562 kts | 107° |
| 2026-05-04 14:26 | 32.82535 | -110.21182 | 34919 ft | 562 kts | 107° |
| 2026-05-04 14:27 | 32.80697 | -110.12160 | 34890 ft | 561 kts | 107° |
| 2026-05-04 14:27 | 32.78843 | -110.03149 | 34887 ft | 561 kts | 107° |
| 2026-05-04 14:28 | 32.76983 | -109.94145 | 34903 ft | 561 kts | 107° |
| 2026-05-04 14:28 | 32.75121 | -109.85142 | 34897 ft | 561 kts | 108° |
| 2026-05-04 14:29 | 32.71383 | -109.67149 | 34996 ft | 561 kts | 107° |
| 2026-05-04 14:30 | 32.69494 | -109.58157 | 34985 ft | 561 kts | 108° |
| 2026-05-04 14:31 | 32.66651 | -109.44674 | 34919 ft | 562 kts | 107° |
| 2026-05-04 14:32 | 32.62856 | -109.26696 | 34865 ft | 561 kts | 107° |
| 2026-05-04 14:32 | 32.60940 | -109.17718 | 34871 ft | 561 kts | 107° |
| 2026-05-04 14:33 | 32.59016 | -109.08743 | 34881 ft | 561 kts | 107° |
| 2026-05-04 14:33 | 32.57087 | -108.99772 | 34880 ft | 562 kts | 107° |
| 2026-05-04 14:34 | 32.55163 | -108.90800 | 34884 ft | 562 kts | 107° |
| 2026-05-04 14:34 | 32.53230 | -108.81827 | 34899 ft | 562 kts | 107° |
| 2026-05-04 14:35 | 32.51285 | -108.72865 | 34861 ft | 561 kts | 107° |
| 2026-05-04 14:35 | 32.49339 | -108.63921 | 34894 ft | 560 kts | 107° |
| 2026-05-04 14:36 | 32.47385 | -108.54987 | 34916 ft | 560 kts | 107° |
| 2026-05-04 14:36 | 32.45438 | -108.46128 | 34950 ft | 559 kts | 107° |
| 2026-05-04 14:37 | 32.43477 | -108.37218 | 35000 ft | 559 kts | 107° |
| 2026-05-04 14:37 | 32.41508 | -108.28311 | 35015 ft | 559 kts | 107° |
| 2026-05-04 14:38 | 32.39533 | -108.19412 | 35011 ft | 559 kts | 107° |
| 2026-05-04 14:38 | 32.37551 | -108.10518 | 34993 ft | 559 kts | 107° |
| 2026-05-04 14:39 | 32.35564 | -108.01626 | 34943 ft | 559 kts | 107° |
| 2026-05-04 14:39 | 32.33581 | -107.92746 | 34916 ft | 558 kts | 108° |
| 2026-05-04 14:40 | 32.30584 | -107.79454 | 35101 ft | 557 kts | 108° |
| 2026-05-04 14:40 | 32.28579 | -107.70605 | 35106 ft | 557 kts | 107° |
| 2026-05-04 14:41 | 32.26573 | -107.61753 | 35100 ft | 558 kts | 107° |
| 2026-05-04 14:42 | 32.22542 | -107.44052 | 34990 ft | 558 kts | 108° |
| 2026-05-04 14:42 | 32.20515 | -107.35206 | 34939 ft | 558 kts | 107° |
| 2026-05-04 14:43 | 32.18476 | -107.26353 | 34935 ft | 559 kts | 108° |
| 2026-05-04 14:43 | 32.16425 | -107.17501 | 34979 ft | 559 kts | 108° |
| 2026-05-04 14:44 | 32.14371 | -107.08648 | 35011 ft | 559 kts | 108° |
| 2026-05-04 14:44 | 32.12314 | -106.99793 | 35048 ft | 560 kts | 108° |
| 2026-05-04 14:45 | 32.10250 | -106.90920 | 35021 ft | 561 kts | 108° |
| 2026-05-04 14:45 | 32.08176 | -106.82037 | 34977 ft | 562 kts | 108° |
| 2026-05-04 14:46 | 32.06083 | -106.73146 | 35008 ft | 563 kts | 108° |
| 2026-05-04 14:46 | 32.03982 | -106.64259 | 34992 ft | 563 kts | 108° |
| 2026-05-04 14:47 | 32.01878 | -106.55371 | 35000 ft | 563 kts | 108° |
| 2026-05-04 14:47 | 31.99791 | -106.46552 | 34996 ft | 562 kts | 108° |
| 2026-05-04 14:48 | 31.97678 | -106.37690 | 35021 ft | 562 kts | 108° |
| 2026-05-04 14:48 | 31.95557 | -106.28832 | 35023 ft | 562 kts | 107° |
| 2026-05-04 14:49 | 31.94010 | -106.19795 | 34990 ft | 563 kts | 101° |
| 2026-05-04 14:49 | 31.92596 | -106.10724 | 34949 ft | 564 kts | 101° |
| 2026-05-04 14:50 | 31.91170 | -106.01652 | 34894 ft | 564 kts | 102° |
| 2026-05-04 14:50 | 31.89729 | -105.92590 | 34859 ft | 563 kts | 101° |
| 2026-05-04 14:51 | 31.88282 | -105.83539 | 34844 ft | 562 kts | 102° |
| 2026-05-04 14:51 | 31.86840 | -105.74510 | 34874 ft | 561 kts | 101° |
| 2026-05-04 14:52 | 31.85397 | -105.65501 | 34880 ft | 560 kts | 102° |
| 2026-05-04 14:52 | 31.83947 | -105.56504 | 34873 ft | 560 kts | 101° |
| 2026-05-04 14:53 | 31.82487 | -105.47510 | 34874 ft | 560 kts | 101° |
| 2026-05-04 14:53 | 31.81019 | -105.38517 | 34871 ft | 560 kts | 102° |
| 2026-05-04 14:54 | 31.79552 | -105.29594 | 34872 ft | 560 kts | 102° |
| 2026-05-04 14:54 | 31.78075 | -105.20613 | 34874 ft | 559 kts | 101° |
| 2026-05-04 14:55 | 31.76589 | -105.11650 | 34886 ft | 559 kts | 101° |
| 2026-05-04 14:55 | 31.75099 | -105.02696 | 34888 ft | 558 kts | 101° |
| 2026-05-04 14:56 | 31.73612 | -104.93748 | 34886 ft | 558 kts | 101° |
| 2026-05-04 14:56 | 31.72124 | -104.84801 | 34878 ft | 558 kts | 101° |
| 2026-05-04 14:57 | 31.70617 | -104.75854 | 34872 ft | 558 kts | 101° |
| 2026-05-04 14:57 | 31.69104 | -104.66911 | 34876 ft | 558 kts | 101° |
| 2026-05-04 14:58 | 31.67576 | -104.57976 | 34869 ft | 558 kts | 101° |
| 2026-05-04 14:58 | 31.66050 | -104.49035 | 34871 ft | 559 kts | 101° |
| 2026-05-04 14:59 | 31.64523 | -104.40095 | 34868 ft | 559 kts | 101° |
| 2026-05-04 15:00 | 31.62220 | -104.26691 | 34865 ft | 559 kts | 101° |
| 2026-05-04 15:00 | 31.60678 | -104.17812 | 34883 ft | 560 kts | 101° |
| 2026-05-04 15:01 | 31.58321 | -104.04366 | 34846 ft | 562 kts | 101° |
| 2026-05-04 15:01 | 31.56760 | -103.95377 | 34848 ft | 563 kts | 101° |
| 2026-05-04 15:02 | 31.55184 | -103.86382 | 34871 ft | 563 kts | 102° |
| 2026-05-04 15:02 | 31.53598 | -103.77390 | 34907 ft | 564 kts | 102° |
| 2026-05-04 15:03 | 31.52007 | -103.68392 | 34941 ft | 564 kts | 102° |
| 2026-05-04 15:03 | 31.50404 | -103.59392 | 34968 ft | 564 kts | 102° |
| 2026-05-04 15:04 | 31.48787 | -103.50396 | 34985 ft | 565 kts | 102° |
| 2026-05-04 15:04 | 31.47165 | -103.41393 | 34966 ft | 565 kts | 101° |
| 2026-05-04 15:05 | 31.45550 | -103.32395 | 34947 ft | 565 kts | 101° |
| 2026-05-04 15:05 | 31.43923 | -103.23393 | 34913 ft | 565 kts | 102° |
| 2026-05-04 15:06 | 31.42287 | -103.14399 | 34889 ft | 565 kts | 102° |
| 2026-05-04 15:07 | 31.39813 | -103.00912 | 34852 ft | 564 kts | 102° |
| 2026-05-04 15:07 | 31.38160 | -102.91940 | 34873 ft | 564 kts | 102° |
| 2026-05-04 15:08 | 31.36500 | -102.82978 | 34884 ft | 563 kts | 102° |
| 2026-05-04 15:08 | 31.34851 | -102.74025 | 34892 ft | 563 kts | 101° |
| 2026-05-04 15:09 | 31.33192 | -102.65081 | 34882 ft | 563 kts | 102° |
| 2026-05-04 15:09 | 31.31528 | -102.56196 | 34880 ft | 563 kts | 102° |
| 2026-05-04 15:10 | 31.29006 | -102.42794 | 34885 ft | 563 kts | 102° |
| 2026-05-04 15:11 | 31.26469 | -102.29389 | 34895 ft | 563 kts | 101° |
| 2026-05-04 15:11 | 31.24779 | -102.20446 | 34897 ft | 564 kts | 102° |
| 2026-05-04 15:12 | 31.23077 | -102.11505 | 34900 ft | 564 kts | 102° |
| 2026-05-04 15:12 | 31.21650 | -102.04081 | 34908 ft | 563 kts | 102° |
| 2026-05-04 15:13 | 31.19926 | -101.95089 | 34909 ft | 563 kts | 101° |
| 2026-05-04 15:13 | 31.18208 | -101.86161 | 34921 ft | 563 kts | 102° |
| 2026-05-04 15:14 | 31.16484 | -101.77301 | 34921 ft | 563 kts | 102° |
| 2026-05-04 15:14 | 31.14745 | -101.68383 | 34924 ft | 563 kts | 102° |
| 2026-05-04 15:15 | 31.13015 | -101.59461 | 34922 ft | 564 kts | 101° |
| 2026-05-04 15:15 | 31.11270 | -101.50533 | 34919 ft | 565 kts | 102° |
| 2026-05-04 15:16 | 31.08625 | -101.37134 | 34933 ft | 565 kts | 101° |
| 2026-05-04 15:17 | 31.05978 | -101.23725 | 34948 ft | 566 kts | 101° |
| 2026-05-04 15:17 | 31.03309 | -101.10301 | 34916 ft | 567 kts | 102° |
| 2026-05-04 15:18 | 31.01521 | -101.01357 | 34937 ft | 566 kts | 102° |
| 2026-05-04 15:19 | 30.98822 | -100.87965 | 34956 ft | 566 kts | 102° |
| 2026-05-04 15:19 | 30.96110 | -100.74586 | 34964 ft | 565 kts | 102° |
| 2026-05-04 15:20 | 30.94308 | -100.65673 | 34962 ft | 565 kts | 102° |
| 2026-05-04 15:20 | 30.92498 | -100.56761 | 34981 ft | 565 kts | 101° |
| 2026-05-04 15:21 | 30.90675 | -100.47853 | 34955 ft | 566 kts | 102° |
| 2026-05-04 15:22 | 30.87905 | -100.34477 | 34944 ft | 567 kts | 102° |
| 2026-05-04 15:22 | 30.85155 | -100.21154 | 34941 ft | 567 kts | 102° |
| 2026-05-04 15:23 | 30.83311 | -100.12227 | 34934 ft | 567 kts | 102° |
| 2026-05-04 15:23 | 30.81454 | -100.03313 | 34942 ft | 567 kts | 102° |
| 2026-05-04 15:24 | 30.77722 | -99.85511 | 34984 ft | 566 kts | 102° |
| 2026-05-04 15:25 | 30.75843 | -99.76625 | 35001 ft | 566 kts | 102° |
| 2026-05-04 15:26 | 30.73013 | -99.63307 | 34995 ft | 565 kts | 102° |
| 2026-05-04 15:26 | 30.70195 | -99.50002 | 34984 ft | 565 kts | 102° |
| 2026-05-04 15:27 | 30.67352 | -99.36702 | 34977 ft | 566 kts | 102° |
| 2026-05-04 15:28 | 30.64480 | -99.23401 | 34972 ft | 566 kts | 102° |
| 2026-05-04 15:29 | 30.61620 | -99.10170 | 34971 ft | 565 kts | 102° |
| 2026-05-04 15:30 | 30.54883 | -98.79248 | 35026 ft | 564 kts | 102° |
| 2026-05-04 15:31 | 30.51963 | -98.66013 | 35038 ft | 565 kts | 102° |
| 2026-05-04 15:32 | 30.49038 | -98.52787 | 35320 ft | 564 kts | 102° |
| 2026-05-04 15:32 | 30.47095 | -98.44016 | 35909 ft | 561 kts | 102° |
| 2026-05-04 15:33 | 30.45142 | -98.35287 | 36494 ft | 558 kts | 102° |
| 2026-05-04 15:34 | 30.42839 | -98.22163 | 37052 ft | 551 kts | 95° |
| 2026-05-04 15:34 | 30.41097 | -98.09021 | 37081 ft | 550 kts | 96° |
| 2026-05-04 15:35 | 30.39089 | -97.95979 | 37100 ft | 551 kts | 97° |
| 2026-05-04 15:36 | 30.36980 | -97.82890 | 37076 ft | 551 kts | 97° |
| 2026-05-04 15:36 | 30.35617 | -97.74154 | 37033 ft | 551 kts | 96° |
| 2026-05-04 15:37 | 30.34258 | -97.65422 | 37034 ft | 551 kts | 97° |
| 2026-05-04 15:37 | 30.32888 | -97.56697 | 37051 ft | 551 kts | 96° |
| 2026-05-04 15:38 | 30.31503 | -97.47972 | 37044 ft | 551 kts | 97° |
| 2026-05-04 15:38 | 30.30108 | -97.39244 | 37041 ft | 552 kts | 97° |
| 2026-05-04 15:39 | 30.28707 | -97.30516 | 37034 ft | 552 kts | 97° |
| 2026-05-04 15:40 | 30.26600 | -97.17426 | 37046 ft | 552 kts | 97° |
| 2026-05-04 15:40 | 30.25189 | -97.08697 | 37054 ft | 552 kts | 97° |
| 2026-05-04 15:41 | 30.23769 | -96.99975 | 37048 ft | 552 kts | 97° |
| 2026-05-04 15:41 | 30.22343 | -96.91248 | 37117 ft | 552 kts | 97° |
| 2026-05-04 15:42 | 30.20906 | -96.82525 | 37104 ft | 552 kts | 97° |
| 2026-05-04 15:42 | 30.19485 | -96.73873 | 37099 ft | 551 kts | 97° |
| 2026-05-04 15:43 | 30.18047 | -96.65170 | 37091 ft | 551 kts | 97° |
| 2026-05-04 15:43 | 30.16604 | -96.56476 | 37075 ft | 551 kts | 97° |
| 2026-05-04 15:44 | 30.15146 | -96.47797 | 37070 ft | 550 kts | 97° |
| 2026-05-04 15:44 | 30.13689 | -96.39115 | 37081 ft | 551 kts | 97° |
| 2026-05-04 15:44 | 30.12960 | -96.34774 | 36950 ft | 551 kts | 97° |
| 2026-05-04 15:45 | 30.12232 | -96.30433 | 36953 ft | 551 kts | 97° |
| 2026-05-04 15:45 | 30.10772 | -96.21751 | 36892 ft | 551 kts | 97° |
| 2026-05-04 15:46 | 30.09304 | -96.13072 | 36903 ft | 551 kts | 97° |
| 2026-05-04 15:46 | 30.07830 | -96.04393 | 36968 ft | 551 kts | 97° |
| 2026-05-04 15:47 | 30.06342 | -95.95714 | 36985 ft | 551 kts | 97° |
| 2026-05-04 15:47 | 30.04842 | -95.87036 | 37022 ft | 551 kts | 97° |
| 2026-05-04 15:48 | 30.03345 | -95.78355 | 37057 ft | 552 kts | 97° |
| 2026-05-04 15:48 | 30.01089 | -95.65333 | 37064 ft | 552 kts | 97° |
| 2026-05-04 15:49 | 29.99573 | -95.56650 | 37069 ft | 552 kts | 97° |
| 2026-05-04 15:49 | 29.98057 | -95.47977 | 37090 ft | 551 kts | 97° |
| 2026-05-04 15:50 | 29.96532 | -95.39313 | 37088 ft | 551 kts | 97° |
| 2026-05-04 15:50 | 29.95063 | -95.30706 | 37113 ft | 550 kts | 95° |
| 2026-05-04 15:51 | 29.93923 | -95.21999 | 37101 ft | 549 kts | 92° |
| 2026-05-04 15:51 | 29.92936 | -95.13276 | 37094 ft | 549 kts | 92° |
| 2026-05-04 15:52 | 29.91870 | -95.04552 | 37092 ft | 550 kts | 94° |
| 2026-05-04 15:52 | 29.90707 | -94.95841 | 37083 ft | 550 kts | 94° |
| 2026-05-04 15:53 | 29.89520 | -94.87135 | 37100 ft | 550 kts | 94° |
| 2026-05-04 15:53 | 29.88352 | -94.78429 | 37093 ft | 550 kts | 94° |
| 2026-05-04 15:54 | 29.87207 | -94.69721 | 37094 ft | 550 kts | 94° |
| 2026-05-04 15:54 | 29.86059 | -94.61010 | 37096 ft | 550 kts | 94° |
| 2026-05-04 15:55 | 29.84886 | -94.52304 | 37114 ft | 550 kts | 94° |
| 2026-05-04 15:55 | 29.83697 | -94.43600 | 37112 ft | 550 kts | 94° |
| 2026-05-04 15:56 | 29.82511 | -94.34897 | 37107 ft | 550 kts | 94° |
| 2026-05-04 15:56 | 29.81329 | -94.26196 | 37109 ft | 550 kts | 94° |
| 2026-05-04 15:57 | 29.80142 | -94.17498 | 37127 ft | 550 kts | 93° |
| 2026-05-04 15:57 | 29.78942 | -94.08804 | 37121 ft | 550 kts | 94° |
| 2026-05-04 15:58 | 29.77729 | -94.00123 | 37113 ft | 549 kts | 94° |
| 2026-05-04 15:58 | 29.76526 | -93.91445 | 37083 ft | 549 kts | 94° |
| 2026-05-04 15:59 | 29.75319 | -93.82779 | 37109 ft | 548 kts | 94° |
| 2026-05-04 15:59 | 29.74098 | -93.74115 | 37137 ft | 548 kts | 94° |
| 2026-05-04 16:00 | 29.73078 | -93.66920 | 37133 ft | 548 kts | 94° |
| 2026-05-04 16:00 | 29.71844 | -93.58269 | 37130 ft | 548 kts | 94° |
| 2026-05-04 16:01 | 29.70616 | -93.49624 | 37138 ft | 548 kts | 94° |
| 2026-05-04 16:01 | 29.69379 | -93.40981 | 37137 ft | 548 kts | 94° |
| 2026-05-04 16:02 | 29.68132 | -93.32340 | 37139 ft | 548 kts | 94° |
| 2026-05-04 16:03 | 29.66256 | -93.19387 | 37133 ft | 547 kts | 94° |
| 2026-05-04 16:03 | 29.65001 | -93.10758 | 37131 ft | 547 kts | 94° |
| 2026-05-04 16:04 | 29.63742 | -93.02131 | 37152 ft | 547 kts | 94° |
| 2026-05-04 16:04 | 29.61837 | -92.89199 | 37135 ft | 547 kts | 94° |
| 2026-05-04 16:05 | 29.60561 | -92.80582 | 37135 ft | 547 kts | 94° |
| 2026-05-04 16:06 | 29.58632 | -92.67648 | 37135 ft | 548 kts | 94° |
| 2026-05-04 16:07 | 29.56041 | -92.50405 | 37147 ft | 547 kts | 93° |
| 2026-05-04 16:08 | 29.53430 | -92.33192 | 37138 ft | 547 kts | 93° |
| 2026-05-04 16:09 | 29.50145 | -92.11709 | 37140 ft | 546 kts | 93° |
| 2026-05-04 16:10 | 29.47484 | -91.94550 | 37148 ft | 546 kts | 93° |
| 2026-05-04 16:11 | 29.44819 | -91.77404 | 37162 ft | 546 kts | 93° |
| 2026-05-04 16:12 | 29.40753 | -91.51699 | 37180 ft | 546 kts | 93° |
| 2026-05-04 16:13 | 29.38028 | -91.34586 | 37165 ft | 545 kts | 93° |
| 2026-05-04 16:14 | 29.35287 | -91.17507 | 37159 ft | 544 kts | 93° |
| 2026-05-04 16:16 | 29.31835 | -90.96274 | 37166 ft | 541 kts | 94° |
| 2026-05-04 16:17 | 29.28364 | -90.75107 | 37164 ft | 541 kts | 95° |
| 2026-05-04 16:18 | 29.25565 | -90.58217 | 37158 ft | 539 kts | 95° |
| 2026-05-04 16:19 | 29.22056 | -90.37191 | 37174 ft | 537 kts | 96° |
| 2026-05-04 16:20 | 29.18522 | -90.16262 | 37165 ft | 534 kts | 96° |
| 2026-05-04 16:21 | 29.15513 | -90.03943 | 37154 ft | 539 kts | 107° |
| 2026-05-04 16:22 | 29.12996 | -89.95866 | 37155 ft | 539 kts | 107° |
| 2026-05-04 16:23 | 29.05440 | -89.71700 | 37147 ft | 538 kts | 107° |
| 2026-05-04 16:25 | 28.97863 | -89.47648 | 37136 ft | 537 kts | 107° |
| 2026-05-04 16:26 | 28.88957 | -89.19577 | 37145 ft | 537 kts | 108° |
| 2026-05-04 16:28 | 28.82566 | -88.99599 | 37147 ft | 535 kts | 108° |
| 2026-05-04 16:29 | 28.73585 | -88.71736 | 37156 ft | 534 kts | 109° |
| 2026-05-04 16:31 | 28.67164 | -88.51914 | 37156 ft | 533 kts | 109° |
| 2026-05-04 16:32 | 28.59454 | -88.28267 | 37143 ft | 532 kts | 110° |
| 2026-05-04 16:33 | 28.54271 | -88.12513 | 37137 ft | 531 kts | 110° |
| 2026-05-04 16:34 | 28.50384 | -88.00710 | 37144 ft | 531 kts | 110° |
| 2026-05-04 16:35 | 28.42587 | -87.77158 | 37143 ft | 531 kts | 110° |
| 2026-05-04 16:36 | 28.38673 | -87.65404 | 37155 ft | 530 kts | 111° |
| 2026-05-04 16:37 | 28.34759 | -87.53677 | 37142 ft | 529 kts | 111° |
| 2026-05-04 16:38 | 28.29555 | -87.38137 | 37118 ft | 528 kts | 111° |
| 2026-05-04 16:39 | 28.23004 | -87.18687 | 37132 ft | 528 kts | 111° |
| 2026-05-04 16:40 | 28.17746 | -87.03154 | 37133 ft | 527 kts | 111° |
| 2026-05-04 16:41 | 28.11146 | -86.83766 | 37137 ft | 528 kts | 112° |
| 2026-05-04 16:43 | 28.04536 | -86.64396 | 37133 ft | 527 kts | 112° |
| 2026-05-04 16:43 | 28.00570 | -86.52841 | 37101 ft | 527 kts | 112° |
| 2026-05-04 16:45 | 27.92578 | -86.29701 | 37119 ft | 526 kts | 112° |
| 2026-05-04 16:46 | 27.86331 | -86.11703 | 37122 ft | 526 kts | 113° |
| 2026-05-04 16:47 | 27.81004 | -85.96395 | 37122 ft | 525 kts | 113° |
| 2026-05-04 16:48 | 27.75635 | -85.81071 | 37112 ft | 524 kts | 113° |
| 2026-05-04 16:49 | 27.70256 | -85.65770 | 37106 ft | 524 kts | 113° |
| 2026-05-04 16:50 | 27.64864 | -85.50470 | 37110 ft | 525 kts | 113° |
| 2026-05-04 16:51 | 27.60802 | -85.38998 | 37113 ft | 525 kts | 114° |
| 2026-05-04 16:51 | 27.58607 | -85.31154 | 37115 ft | 527 kts | 101° |
| 2026-05-04 16:52 | 27.57220 | -85.23048 | 37109 ft | 527 kts | 102° |
| 2026-05-04 16:53 | 27.55096 | -85.10901 | 37111 ft | 526 kts | 102° |
| 2026-05-04 16:54 | 27.52250 | -84.94732 | 37111 ft | 526 kts | 102° |
| 2026-05-04 16:55 | 27.47961 | -84.70499 | 37106 ft | 526 kts | 102° |
| 2026-05-04 16:56 | 27.44359 | -84.50320 | 37107 ft | 526 kts | 102° |
| 2026-05-04 16:57 | 27.42173 | -84.38212 | 37108 ft | 526 kts | 103° |
| 2026-05-04 16:58 | 27.39243 | -84.22068 | 37118 ft | 527 kts | 103° |
| 2026-05-04 17:00 | 27.34818 | -83.97832 | 37115 ft | 528 kts | 103° |
| 2026-05-04 17:01 | 27.31104 | -83.77632 | 37110 ft | 528 kts | 103° |
| 2026-05-04 17:02 | 27.28097 | -83.61474 | 37109 ft | 528 kts | 104° |
| 2026-05-04 17:03 | 27.25827 | -83.49366 | 37101 ft | 528 kts | 104° |
| 2026-05-04 17:03 | 27.23553 | -83.37257 | 37104 ft | 528 kts | 104° |
| 2026-05-04 17:04 | 27.20513 | -83.21172 | 37107 ft | 528 kts | 104° |
| 2026-05-04 17:05 | 27.17441 | -83.05043 | 37096 ft | 528 kts | 104° |
| 2026-05-04 17:06 | 27.15123 | -82.92946 | 37091 ft | 528 kts | 104° |
| 2026-05-04 17:07 | 27.12373 | -82.82426 | 37087 ft | 521 kts | 120° |
| 2026-05-04 17:07 | 27.08088 | -82.74364 | 37085 ft | 517 kts | 126° |
| 2026-05-04 17:08 | 27.02424 | -82.64056 | 37088 ft | 518 kts | 126° |
| 2026-05-04 17:09 | 26.98637 | -82.57191 | 37085 ft | 518 kts | 126° |
| 2026-05-04 17:09 | 26.94860 | -82.50335 | 36914 ft | 513 kts | 126° |
| 2026-05-04 17:10 | 26.90880 | -82.43927 | 36396 ft | 488 kts | 138° |
| 2026-05-04 17:10 | 26.83458 | -82.36515 | 34945 ft | 471 kts | 146° |
| 2026-05-04 17:11 | 26.80973 | -82.34138 | 34444 ft | 469 kts | 146° |
| 2026-05-04 17:11 | 26.78497 | -82.31770 | 33930 ft | 467 kts | 146° |
| 2026-05-04 17:11 | 26.73589 | -82.27067 | 32939 ft | 461 kts | 146° |
| 2026-05-04 17:12 | 26.71159 | -82.24742 | 32448 ft | 458 kts | 146° |
| 2026-05-04 17:12 | 26.66341 | -82.20134 | 31498 ft | 453 kts | 146° |
| 2026-05-04 17:13 | 26.59219 | -82.13335 | 30123 ft | 445 kts | 146° |
| 2026-05-04 17:14 | 26.52225 | -82.06667 | 28788 ft | 436 kts | 145° |
| 2026-05-04 17:14 | 26.49954 | -82.04437 | 28360 ft | 434 kts | 144° |
| 2026-05-04 17:14 | 26.45447 | -81.99871 | 27479 ft | 453 kts | 143° |
| 2026-05-04 17:15 | 26.43096 | -81.97478 | 27017 ft | 460 kts | 143° |
| 2026-05-04 17:15 | 26.38393 | -81.92688 | 26035 ft | 455 kts | 143° |
| 2026-05-04 17:16 | 26.33737 | -81.87997 | 25023 ft | 448 kts | 143° |
| 2026-05-04 17:16 | 26.26850 | -81.81106 | 23434 ft | 441 kts | 143° |
| 2026-05-04 17:17 | 26.24651 | -81.78763 | 23074 ft | 437 kts | 136° |
| 2026-05-04 17:17 | 26.20244 | -81.69881 | 21749 ft | 432 kts | 118° |
| 2026-05-04 17:18 | 26.18944 | -81.66887 | 21309 ft | 428 kts | 119° |
| 2026-05-04 17:18 | 26.16356 | -81.60986 | 20439 ft | 421 kts | 119° |
| 2026-05-04 17:19 | 26.13810 | -81.55180 | 19588 ft | 414 kts | 119° |
| 2026-05-04 17:19 | 26.11301 | -81.49440 | 18569 ft | 412 kts | 119° |
| 2026-05-04 17:20 | 26.08820 | -81.43752 | 17240 ft | 406 kts | 119° |
| 2026-05-04 17:20 | 26.06375 | -81.38152 | 16017 ft | 398 kts | 119° |
| 2026-05-04 17:20 | 26.05179 | -81.35410 | 15715 ft | 391 kts | 119° |
| 2026-05-04 17:21 | 26.02821 | -81.29995 | 15020 ft | 386 kts | 119° |
| 2026-05-04 17:21 | 26.00490 | -81.24654 | 14200 ft | 382 kts | 119° |
| 2026-05-04 17:22 | 25.99331 | -81.22002 | 13790 ft | 380 kts | 119° |
| 2026-05-04 17:22 | 25.98178 | -81.19369 | 13343 ft | 378 kts | 119° |
| 2026-05-04 17:23 | 25.94772 | -81.11585 | 12114 ft | 368 kts | 119° |
| 2026-05-04 17:23 | 25.93659 | -81.09036 | 11696 ft | 365 kts | 118° |
| 2026-05-04 17:23 | 25.91477 | -81.04054 | 11157 ft | 347 kts | 119° |
| 2026-05-04 17:24 | 25.90479 | -81.01677 | 10942 ft | 334 kts | 117° |
| 2026-05-04 17:24 | 25.87858 | -80.94785 | 9465 ft | 316 kts | 115° |
| 2026-05-04 17:25 | 25.87010 | -80.92527 | 8751 ft | 316 kts | 115° |
| 2026-05-04 17:25 | 25.85349 | -80.88155 | 8261 ft | 302 kts | 114° |
| 2026-05-04 17:26 | 25.85035 | -80.83538 | 7474 ft | 303 kts | 83° |
| 2026-05-04 17:26 | 25.85773 | -80.76675 | 6411 ft | 295 kts | 83° |
| 2026-05-04 17:27 | 25.86258 | -80.72209 | 5704 ft | 288 kts | 83° |
| 2026-05-04 17:27 | 25.86701 | -80.67837 | 5024 ft | 282 kts | 83° |
| 2026-05-04 17:28 | 25.87048 | -80.64278 | 4458 ft | 276 kts | 82° |
| 2026-05-04 17:29 | 25.87614 | -80.58000 | 3503 ft | 270 kts | 82° |
| 2026-05-04 17:29 | 25.88085 | -80.51930 | 3004 ft | 253 kts | 82° |
| 2026-05-04 17:30 | 25.88331 | -80.46093 | 3006 ft | 255 kts | 99° |
| 2026-05-04 17:31 | 25.86714 | -80.42602 | 2639 ft | 261 kts | 133° |
| 2026-05-04 17:31 | 25.83871 | -80.37980 | 1580 ft | 223 kts | 115° |
| 2026-05-04 17:32 | 25.82480 | -80.35231 | 1051 ft | 187 kts | 116° |
| 2026-05-04 17:33 | 25.80809 | -80.31956 | 417 ft | 150 kts | 118° |
| 2026-05-04 17:33 | 25.80304 | -80.30957 | 202 ft | 146 kts | 117° |
| 2026-05-04 17:34 | 25.79248 | -80.28893 | 13 ft | 42 kts | 119° |
| 2026-05-04 17:34 | 25.79201 | -80.28710 | 17 ft | 17 kts | 77° |
| 2026-05-04 17:35 | 25.79372 | -80.28566 | 18 ft | 12 kts | 357° |
| 2026-05-04 17:35 | 25.79544 | -80.28574 | 19 ft | 13 kts | 358° |
| 2026-05-04 17:35 | 25.79636 | -80.28575 | 19 ft | 12 kts | 9° |
| 2026-05-04 17:36 | 25.79670 | -80.28499 | 19 ft | 12 kts | 85° |
| 2026-05-04 17:36 | 25.79673 | -80.28400 | 18 ft | 12 kts | 89° |
| 2026-05-04 17:36 | 25.79705 | -80.28348 | 18 ft | 8 kts | 359° |
| 2026-05-04 17:36 | 25.79736 | -80.28351 | 17 ft | 3 kts | 357° |
| 2026-05-04 17:37 | 25.79739 | -80.28351 | 17 ft | 0 kts | 357° |